WetterOnline ( http://www.wetteronline.de )

Wetter aktuell Herdecke

Aktuelles Wetter: Lüdenscheid (392m)

6-stündlich | Neueste Meldungen
Ortszeit Temperatur Wetter
Sa, 20.10. 14:00 12.7° C leicht bewölkt
Sa, 20.10. 8:00 3.2° C Nebel
Sa, 20.10. 2:00 7.0° C wolkig
Fr, 19.10. 20:00 11.7° C bedeckt
Fr, 19.10. 14:00 13.1° C bewölkt
Fr, 19.10. 8:00 9.2° C bedeckt
Fr, 19.10. 2:00 10.4° C bedeckt
Do, 18.10. 20:00 12.4° C bedeckt
Ortszeit Temperatur Wetter
Sa, 20.10. 17:10 11.2° C bewölkt
Sa, 20.10. 17:00 11.8° C bedeckt
Sa, 20.10. 16:50 11.8° C bedeckt
Sa, 20.10. 16:40 11.7° C bedeckt
Sa, 20.10. 16:30 12.1° C bedeckt
Sa, 20.10. 16:20 12.1° C bedeckt
Sa, 20.10. 16:00 12.4° C wolkig
Sa, 20.10. 15:30 12.7° C bewölkt
Sa, 20.10. 15:00 12.8° C leicht bewölkt
Sa, 20.10. 14:30 12.4° C wolkig
Sa, 20.10. 14:00 12.7° C leicht bewölkt
Ortszeit Relative Feuchte Sichtweite
Sa, 20.10. 14:00 57% 45 km
Sa, 20.10. 8:00 99% <100 m
Sa, 20.10. 2:00 99% 5.0 km
Fr, 19.10. 20:00 83% 15 km
Fr, 19.10. 14:00 66% 30 km
Fr, 19.10. 8:00 95% 6 km
Fr, 19.10. 2:00 97% 4.0 km
Do, 18.10. 20:00 88% 25 km
Ortszeit Relative Feuchte Sichtweite
Sa, 20.10. 17:10 63% -
Sa, 20.10. 17:00 61% 30 km
Sa, 20.10. 16:50 61% -
Sa, 20.10. 16:40 61% -
Sa, 20.10. 16:30 61% 35 km
Sa, 20.10. 16:20 61% -
Sa, 20.10. 16:00 58% 30 km
Sa, 20.10. 15:30 55% 30 km
Sa, 20.10. 15:00 56% 40 km
Sa, 20.10. 14:30 55% 40 km
Sa, 20.10. 14:00 57% 45 km
Ortszeit Niederschlagsmenge Niederschlagsart
Sa, 20.10. 14:00 0.0 l/m2 in 6 Std. -
Sa, 20.10. 8:00 0.1 l/m2 in 12 Std. -
Sa, 20.10. 2:00 0.0 l/m2 in 6 Std. -
Fr, 19.10. 20:00 0.0 l/m2 in 12 Std. -
Fr, 19.10. 14:00 0.0 l/m2 in 6 Std. -
Fr, 19.10. 8:00 0.1 l/m2 in 12 Std. Regen
Fr, 19.10. 2:00 0.1 l/m2 in 6 Std. Sprühregen
Do, 18.10. 20:00 0.0 l/m2 in 12 Std. -
Ortszeit Niederschlagsmenge Niederschlagsart
Sa, 20.10. 17:10 keine Meldung -
Sa, 20.10. 17:00 0.0 l/m2 in 1 Std. -
Sa, 20.10. 16:50 keine Meldung -
Sa, 20.10. 16:40 keine Meldung -
Sa, 20.10. 16:30 0.0 l/m2 in 1 Std. -
Sa, 20.10. 16:20 keine Meldung -
Sa, 20.10. 16:00 0.0 l/m2 in 1 Std. -
Sa, 20.10. 15:30 0.0 l/m2 in 1 Std. -
Sa, 20.10. 15:00 0.0 l/m2 in 1 Std. -
Sa, 20.10. 14:30 0.0 l/m2 in 1 Std. -
Sa, 20.10. 14:00 0.0 l/m2 in 1 Std. -
Ortszeit Stärke Spitze Richtung
km/h Bft. km/h Grad Sektor
Sa, 20.10. 14:00 11 2 18 100° O
Sa, 20.10. 8:00 0 0 7 - -
Sa, 20.10. 2:00 0 0 11 - -
Fr, 19.10. 20:00 6 1 19 50° NO
Fr, 19.10. 14:00 11 2 18 120° SO
Fr, 19.10. 8:00 4 1 14 70° O
Fr, 19.10. 2:00 7 2 24 70° O
Do, 18.10. 20:00 7 2 18 60° NO
Ortszeit Stärke Spitze Richtung
km/h Bft. km/h Grad Sektor
Sa, 20.10. 17:10 7 2 - 10° N
Sa, 20.10. 17:00 7 2 11 10° N
Sa, 20.10. 16:50 7 2 - 10° N
Sa, 20.10. 16:40 6 1 - 10° N
Sa, 20.10. 16:30 6 1 11 20° N
Sa, 20.10. 16:20 6 1 - 20° N
Sa, 20.10. 16:00 7 2 18 40° NO
Sa, 20.10. 15:30 9 2 17 20° N
Sa, 20.10. 15:00 7 2 18 80° O
Sa, 20.10. 14:30 4 1 18 110° O
Sa, 20.10. 14:00 11 2 14 100° O
Ortszeit Untergrenze Bedeckung Gattung
total tief tief mittel hoch
Sa, 20.10. 14:00 5400 m 6/8 1/8 - - -
Sa, 20.10. 8:00 <30 m 8/8 8/8 - - -
Sa, 20.10. 2:00 960 m 5/8 5/8 - - -
Fr, 19.10. 20:00 1080 m 8/8 8/8 - - -
Fr, 19.10. 14:00 900 m 8/8 4/8 - - -
Fr, 19.10. 8:00 150 m 8/8 8/8 - - -
Fr, 19.10. 2:00 60 m 8/8 8/8 - - -
Do, 18.10. 20:00 300 m 8/8 8/8 - - -
Ortszeit Bedeckungsgrad in Achtel und Wolkenuntergrenze
Sa, 20.10. 17:10 4(6900m) 8(8700m)
Sa, 20.10. 17:00 8(6900m) 8(8700m) 8(9000m)
Sa, 20.10. 16:50 8(6900m) 8(8700m) 8(9000m)
Sa, 20.10. 16:40 8(6900m) 8(8700m) 8(9000m)
Sa, 20.10. 16:30 8(6900m) 8(9000m) 8(9000m)
Sa, 20.10. 16:20 8(6900m) 8(9000m)
Sa, 20.10. 16:00 7(6900m) 8(7500m) 8(9000m)
Sa, 20.10. 15:30 4(6900m) 8(7500m) 8(9000m)
Sa, 20.10. 15:00 8(7500m) 8(10500m)
Sa, 20.10. 14:30 7(7500m) 8(10500m) 8(10500m)
Sa, 20.10. 14:00 1(5400m) 5(7800m) 6(10500m)
Ortszeit Luftdruck NN (hPa) Tendenz (hPa in 3 Std.)
Sa, 20.10. 14:00 1031 - 0,1
Sa, 20.10. 8:00 1030 + 1,2
Sa, 20.10. 2:00 1028 + 0,9
Fr, 19.10. 20:00 1025 + 1,1
Fr, 19.10. 14:00 1024 - 0,9
Fr, 19.10. 8:00 1025 + 0,1
Fr, 19.10. 2:00 1025 - 0,6
Do, 18.10. 20:00 1024 + 0,6
Ortszeit Luftdruck NN (hPa) Tendenz (hPa in 3 Std.)
Sa, 20.10. 17:10 1030 keine Meldung
Sa, 20.10. 17:00 1030 - 0,3
Sa, 20.10. 16:50 1030 keine Meldung
Sa, 20.10. 16:40 1030 keine Meldung
Sa, 20.10. 16:30 1030 - 0,9
Sa, 20.10. 16:20 1030 keine Meldung
Sa, 20.10. 16:00 1030 - 0,7
Sa, 20.10. 15:30 1030 - 0,7
Sa, 20.10. 15:00 1030 - 0,4
Sa, 20.10. 14:30 1030 - 0,7
Sa, 20.10. 14:00 1031 - 0,1
Ortszeit Schneehöhe (cm)
Sa, 20.10. 14:00 0
Sa, 20.10. 8:00 0
Sa, 20.10. 2:00 0
Fr, 19.10. 20:00 0
Fr, 19.10. 14:00 0
Fr, 19.10. 8:00 0
Fr, 19.10. 2:00 0
Do, 18.10. 20:00 0
Ortszeit Schneehöhe (cm)
Sa, 20.10. 17:10 0
Sa, 20.10. 17:00 0
Sa, 20.10. 16:50 0
Sa, 20.10. 16:40 0
Sa, 20.10. 16:30 0
Sa, 20.10. 16:20 0
Sa, 20.10. 16:00 0
Sa, 20.10. 15:30 0
Sa, 20.10. 15:00 0
Sa, 20.10. 14:30 0
Sa, 20.10. 14:00 0
Link zu dieser Seite / Seite empfehlen

Das Wetter in ...